sensor_id;sensor_type;location;lat;lon;timestamp;temperature;humidity
57664;DHT22;43493;53.098;6.064;2023-09-08T00:00:57;20.20;99.90
57664;DHT22;43493;53.098;6.064;2023-09-08T00:03:22;20.10;99.90
57664;DHT22;43493;53.098;6.064;2023-09-08T00:05:48;20.10;99.90
57664;DHT22;43493;53.098;6.064;2023-09-08T00:08:14;20.10;99.90
57664;DHT22;43493;53.098;6.064;2023-09-08T00:10:40;20.10;99.90
57664;DHT22;43493;53.098;6.064;2023-09-08T00:13:06;20.00;99.90
57664;DHT22;43493;53.098;6.064;2023-09-08T00:15:34;20.00;99.90
57664;DHT22;43493;53.098;6.064;2023-09-08T00:18:00;20.00;99.90
57664;DHT22;43493;53.098;6.064;2023-09-08T00:20:26;19.90;99.90
57664;DHT22;43493;53.098;6.064;2023-09-08T00:22:52;19.90;99.90
57664;DHT22;43493;53.098;6.064;2023-09-08T00:25:18;19.90;99.90
57664;DHT22;43493;53.098;6.064;2023-09-08T00:27:43;19.90;99.90
57664;DHT22;43493;53.098;6.064;2023-09-08T00:30:09;19.80;99.90
57664;DHT22;43493;53.098;6.064;2023-09-08T00:32:36;19.80;99.90
57664;DHT22;43493;53.098;6.064;2023-09-08T00:35:01;19.70;99.90
57664;DHT22;43493;53.098;6.064;2023-09-08T00:37:27;19.80;99.90
57664;DHT22;43493;53.098;6.064;2023-09-08T00:39:53;19.80;99.90
57664;DHT22;43493;53.098;6.064;2023-09-08T00:42:19;19.70;99.90
57664;DHT22;43493;53.098;6.064;2023-09-08T00:44:45;19.80;99.90
57664;DHT22;43493;53.098;6.064;2023-09-08T00:47:13;19.70;99.90
57664;DHT22;43493;53.098;6.064;2023-09-08T00:49:39;19.70;99.90
57664;DHT22;43493;53.098;6.064;2023-09-08T00:52:05;19.70;99.90
57664;DHT22;43493;53.098;6.064;2023-09-08T00:54:31;19.70;99.90
57664;DHT22;43493;53.098;6.064;2023-09-08T00:56:57;19.60;99.90
57664;DHT22;43493;53.098;6.064;2023-09-08T00:59:24;19.60;99.90
57664;DHT22;43493;53.098;6.064;2023-09-08T01:01:50;19.60;99.90
57664;DHT22;43493;53.098;6.064;2023-09-08T01:04:16;19.60;99.90
57664;DHT22;43493;53.098;6.064;2023-09-08T01:06:46;19.50;99.90
57664;DHT22;43493;53.098;6.064;2023-09-08T01:09:12;19.50;99.90
57664;DHT22;43493;53.098;6.064;2023-09-08T01:11:39;19.50;99.90
57664;DHT22;43493;53.098;6.064;2023-09-08T01:14:05;19.40;99.90
57664;DHT22;43493;53.098;6.064;2023-09-08T01:16:30;19.50;99.90
57664;DHT22;43493;53.098;6.064;2023-09-08T01:18:56;19.40;99.90
57664;DHT22;43493;53.098;6.064;2023-09-08T01:24:35;19.40;99.90
57664;DHT22;43493;53.098;6.064;2023-09-08T01:27:03;19.30;99.90
57664;DHT22;43493;53.098;6.064;2023-09-08T01:29:30;19.40;99.90
57664;DHT22;43493;53.098;6.064;2023-09-08T01:31:56;19.30;99.90
57664;DHT22;43493;53.098;6.064;2023-09-08T01:34:22;19.30;99.90
57664;DHT22;43493;53.098;6.064;2023-09-08T01:36:49;19.20;99.90
57664;DHT22;43493;53.098;6.064;2023-09-08T01:39:15;19.20;99.90
57664;DHT22;43493;53.098;6.064;2023-09-08T01:41:41;19.20;99.90
57664;DHT22;43493;53.098;6.064;2023-09-08T01:44:10;19.20;99.90
57664;DHT22;43493;53.098;6.064;2023-09-08T01:46:44;19.20;99.90
57664;DHT22;43493;53.098;6.064;2023-09-08T01:49:10;19.20;99.90
57664;DHT22;43493;53.098;6.064;2023-09-08T01:51:35;19.10;99.90
57664;DHT22;43493;53.098;6.064;2023-09-08T01:54:01;19.10;99.90
57664;DHT22;43493;53.098;6.064;2023-09-08T01:56:27;19.10;99.90
57664;DHT22;43493;53.098;6.064;2023-09-08T01:58:53;19.00;99.90
57664;DHT22;43493;53.098;6.064;2023-09-08T02:01:18;19.10;99.90
57664;DHT22;43493;53.098;6.064;2023-09-08T02:03:44;19.10;99.90
57664;DHT22;43493;53.098;6.064;2023-09-08T02:06:10;19.00;99.90
57664;DHT22;43493;53.098;6.064;2023-09-08T02:08:35;19.00;99.90
57664;DHT22;43493;53.098;6.064;2023-09-08T02:11:02;18.90;99.90
57664;DHT22;43493;53.098;6.064;2023-09-08T02:13:28;18.90;99.90
57664;DHT22;43493;53.098;6.064;2023-09-08T02:15:54;18.80;99.90
57664;DHT22;43493;53.098;6.064;2023-09-08T02:18:20;18.80;99.90
57664;DHT22;43493;53.098;6.064;2023-09-08T02:20:45;18.80;99.90
57664;DHT22;43493;53.098;6.064;2023-09-08T02:23:11;18.80;99.90
57664;DHT22;43493;53.098;6.064;2023-09-08T02:25:37;18.70;99.90
57664;DHT22;43493;53.098;6.064;2023-09-08T02:28:04;18.70;99.90
57664;DHT22;43493;53.098;6.064;2023-09-08T02:30:30;18.70;99.90
57664;DHT22;43493;53.098;6.064;2023-09-08T02:32:56;18.70;99.90
57664;DHT22;43493;53.098;6.064;2023-09-08T02:35:23;18.70;99.90
57664;DHT22;43493;53.098;6.064;2023-09-08T02:37:49;18.70;99.90
57664;DHT22;43493;53.098;6.064;2023-09-08T02:40:15;18.60;99.90
57664;DHT22;43493;53.098;6.064;2023-09-08T02:42:44;18.60;99.90
57664;DHT22;43493;53.098;6.064;2023-09-08T02:45:15;18.60;99.90
57664;DHT22;43493;53.098;6.064;2023-09-08T02:47:41;18.50;99.90
57664;DHT22;43493;53.098;6.064;2023-09-08T02:50:07;18.50;99.90
57664;DHT22;43493;53.098;6.064;2023-09-08T02:52:32;18.50;99.90
57664;DHT22;43493;53.098;6.064;2023-09-08T02:54:59;18.50;99.90
57664;DHT22;43493;53.098;6.064;2023-09-08T02:57:24;18.50;99.90
57664;DHT22;43493;53.098;6.064;2023-09-08T02:59:50;18.40;99.90
57664;DHT22;43493;53.098;6.064;2023-09-08T03:02:16;18.50;99.90
57664;DHT22;43493;53.098;6.064;2023-09-08T03:04:42;18.50;99.90
57664;DHT22;43493;53.098;6.064;2023-09-08T03:07:08;18.50;99.90
57664;DHT22;43493;53.098;6.064;2023-09-08T03:09:34;18.50;99.90
57664;DHT22;43493;53.098;6.064;2023-09-08T03:12:00;18.40;99.90
57664;DHT22;43493;53.098;6.064;2023-09-08T03:14:25;18.50;99.90
57664;DHT22;43493;53.098;6.064;2023-09-08T03:16:51;18.40;99.90
57664;DHT22;43493;53.098;6.064;2023-09-08T03:19:20;18.30;99.90
57664;DHT22;43493;53.098;6.064;2023-09-08T03:21:46;18.30;99.90
57664;DHT22;43493;53.098;6.064;2023-09-08T03:24:12;18.30;99.90
57664;DHT22;43493;53.098;6.064;2023-09-08T03:26:38;18.30;99.90
57664;DHT22;43493;53.098;6.064;2023-09-08T03:29:06;18.30;99.90
57664;DHT22;43493;53.098;6.064;2023-09-08T03:31:32;18.20;99.90
57664;DHT22;43493;53.098;6.064;2023-09-08T03:33:57;18.20;99.90
57664;DHT22;43493;53.098;6.064;2023-09-08T03:36:25;18.20;99.90
57664;DHT22;43493;53.098;6.064;2023-09-08T03:38:50;18.10;99.90
57664;DHT22;43493;53.098;6.064;2023-09-08T03:41:16;18.10;99.90
57664;DHT22;43493;53.098;6.064;2023-09-08T03:43:42;18.10;99.90
57664;DHT22;43493;53.098;6.064;2023-09-08T03:46:07;18.10;99.90
57664;DHT22;43493;53.098;6.064;2023-09-08T03:48:33;18.00;99.90
57664;DHT22;43493;53.098;6.064;2023-09-08T03:50:59;18.00;99.90
57664;DHT22;43493;53.098;6.064;2023-09-08T03:53:25;18.00;99.90
57664;DHT22;43493;53.098;6.064;2023-09-08T03:55:51;18.00;99.90
57664;DHT22;43493;53.098;6.064;2023-09-08T03:58:17;18.00;99.90
57664;DHT22;43493;53.098;6.064;2023-09-08T04:00:43;18.00;99.90
57664;DHT22;43493;53.098;6.064;2023-09-08T04:03:08;18.00;99.90
57664;DHT22;43493;53.098;6.064;2023-09-08T04:05:40;18.00;99.90
57664;DHT22;43493;53.098;6.064;2023-09-08T04:08:06;18.00;99.90
57664;DHT22;43493;53.098;6.064;2023-09-08T04:10:32;17.90;99.90
57664;DHT22;43493;53.098;6.064;2023-09-08T04:12:57;17.90;99.90
57664;DHT22;43493;53.098;6.064;2023-09-08T04:15:24;17.90;99.90
57664;DHT22;43493;53.098;6.064;2023-09-08T04:17:49;17.90;99.90
57664;DHT22;43493;53.098;6.064;2023-09-08T04:20:15;17.80;99.90
57664;DHT22;43493;53.098;6.064;2023-09-08T04:22:41;17.90;99.90
57664;DHT22;43493;53.098;6.064;2023-09-08T04:25:07;17.90;99.90
57664;DHT22;43493;53.098;6.064;2023-09-08T04:27:32;17.90;99.90
57664;DHT22;43493;53.098;6.064;2023-09-08T04:29:58;17.90;99.90
57664;DHT22;43493;53.098;6.064;2023-09-08T04:32:25;17.80;99.90
57664;DHT22;43493;53.098;6.064;2023-09-08T04:34:51;17.70;99.90
57664;DHT22;43493;53.098;6.064;2023-09-08T04:37:16;17.70;99.90
57664;DHT22;43493;53.098;6.064;2023-09-08T04:39:42;17.70;99.90
57664;DHT22;43493;53.098;6.064;2023-09-08T04:42:09;17.70;99.90
57664;DHT22;43493;53.098;6.064;2023-09-08T04:44:35;17.70;99.90
57664;DHT22;43493;53.098;6.064;2023-09-08T04:47:01;17.70;99.90
57664;DHT22;43493;53.098;6.064;2023-09-08T04:49:27;17.70;99.90
57664;DHT22;43493;53.098;6.064;2023-09-08T04:51:54;17.70;99.90
57664;DHT22;43493;53.098;6.064;2023-09-08T04:54:20;17.60;99.90
57664;DHT22;43493;53.098;6.064;2023-09-08T04:56:45;17.60;99.90
57664;DHT22;43493;53.098;6.064;2023-09-08T04:59:11;17.60;99.90
57664;DHT22;43493;53.098;6.064;2023-09-08T05:01:37;17.60;99.90
57664;DHT22;43493;53.098;6.064;2023-09-08T05:04:03;17.60;99.90
57664;DHT22;43493;53.098;6.064;2023-09-08T05:06:31;17.60;99.90
57664;DHT22;43493;53.098;6.064;2023-09-08T05:08:58;17.60;99.90
57664;DHT22;43493;53.098;6.064;2023-09-08T05:11:25;17.50;99.90
57664;DHT22;43493;53.098;6.064;2023-09-08T05:13:51;17.60;99.90
57664;DHT22;43493;53.098;6.064;2023-09-08T05:16:17;17.60;99.90
57664;DHT22;43493;53.098;6.064;2023-09-08T05:18:44;17.50;99.90
57664;DHT22;43493;53.098;6.064;2023-09-08T05:21:10;17.60;99.90
57664;DHT22;43493;53.098;6.064;2023-09-08T05:23:36;17.60;99.90
57664;DHT22;43493;53.098;6.064;2023-09-08T05:26:01;17.60;99.90
57664;DHT22;43493;53.098;6.064;2023-09-08T05:28:27;17.60;99.90
57664;DHT22;43493;53.098;6.064;2023-09-08T05:30:54;17.60;99.90
57664;DHT22;43493;53.098;6.064;2023-09-08T05:33:21;17.60;99.90
57664;DHT22;43493;53.098;6.064;2023-09-08T05:35:47;17.60;99.90
57664;DHT22;43493;53.098;6.064;2023-09-08T05:38:13;17.60;99.90
57664;DHT22;43493;53.098;6.064;2023-09-08T05:40:39;17.60;99.90
57664;DHT22;43493;53.098;6.064;2023-09-08T05:43:05;17.60;99.90
57664;DHT22;43493;53.098;6.064;2023-09-08T05:45:34;17.60;99.90
57664;DHT22;43493;53.098;6.064;2023-09-08T05:48:00;17.60;99.90
57664;DHT22;43493;53.098;6.064;2023-09-08T05:50:27;17.60;99.90
57664;DHT22;43493;53.098;6.064;2023-09-08T05:52:54;17.60;99.90
57664;DHT22;43493;53.098;6.064;2023-09-08T05:55:19;17.60;99.90
57664;DHT22;43493;53.098;6.064;2023-09-08T05:57:46;17.80;99.90
57664;DHT22;43493;53.098;6.064;2023-09-08T06:00:12;17.70;99.90
57664;DHT22;43493;53.098;6.064;2023-09-08T06:02:38;17.80;99.90
57664;DHT22;43493;53.098;6.064;2023-09-08T06:05:04;17.80;99.90
57664;DHT22;43493;53.098;6.064;2023-09-08T06:07:29;17.90;99.90
57664;DHT22;43493;53.098;6.064;2023-09-08T06:09:55;18.30;99.90
57664;DHT22;43493;53.098;6.064;2023-09-08T06:12:21;19.20;99.90
57664;DHT22;43493;53.098;6.064;2023-09-08T06:14:47;20.30;99.90
57664;DHT22;43493;53.098;6.064;2023-09-08T06:17:13;21.50;99.90
57664;DHT22;43493;53.098;6.064;2023-09-08T06:19:39;22.60;99.90
57664;DHT22;43493;53.098;6.064;2023-09-08T06:22:04;23.60;99.90
57664;DHT22;43493;53.098;6.064;2023-09-08T06:24:30;24.10;99.90
57664;DHT22;43493;53.098;6.064;2023-09-08T06:26:56;23.90;99.90
57664;DHT22;43493;53.098;6.064;2023-09-08T06:29:22;23.90;99.90
57664;DHT22;43493;53.098;6.064;2023-09-08T06:31:48;24.60;99.90
57664;DHT22;43493;53.098;6.064;2023-09-08T06:34:15;25.40;99.90
57664;DHT22;43493;53.098;6.064;2023-09-08T06:36:41;26.20;99.90
57664;DHT22;43493;53.098;6.064;2023-09-08T06:39:07;26.80;99.90
57664;DHT22;43493;53.098;6.064;2023-09-08T06:41:33;27.60;97.80
57664;DHT22;43493;53.098;6.064;2023-09-08T06:43:59;28.30;94.40
57664;DHT22;43493;53.098;6.064;2023-09-08T06:46:25;28.90;89.30
57664;DHT22;43493;53.098;6.064;2023-09-08T06:48:51;29.00;81.00
57664;DHT22;43493;53.098;6.064;2023-09-08T06:51:16;29.50;75.20
57664;DHT22;43493;53.098;6.064;2023-09-08T06:53:43;29.90;70.80
57664;DHT22;43493;53.098;6.064;2023-09-08T06:56:09;30.40;67.20
57664;DHT22;43493;53.098;6.064;2023-09-08T06:58:35;30.80;63.40
57664;DHT22;43493;53.098;6.064;2023-09-08T07:01:01;31.20;61.60
57664;DHT22;43493;53.098;6.064;2023-09-08T07:03:26;31.50;59.40
57664;DHT22;43493;53.098;6.064;2023-09-08T07:05:52;31.50;57.80
57664;DHT22;43493;53.098;6.064;2023-09-08T07:08:18;31.80;57.20
57664;DHT22;43493;53.098;6.064;2023-09-08T07:10:46;32.20;55.90
57664;DHT22;43493;53.098;6.064;2023-09-08T07:13:16;32.50;54.40
57664;DHT22;43493;53.098;6.064;2023-09-08T07:15:42;32.80;53.10
57664;DHT22;43493;53.098;6.064;2023-09-08T07:18:08;33.00;52.40
57664;DHT22;43493;53.098;6.064;2023-09-08T07:20:35;33.00;51.70
57664;DHT22;43493;53.098;6.064;2023-09-08T07:23:00;33.30;51.20
57664;DHT22;43493;53.098;6.064;2023-09-08T07:25:26;33.70;50.80
57664;DHT22;43493;53.098;6.064;2023-09-08T07:27:52;33.80;50.30
57664;DHT22;43493;53.098;6.064;2023-09-08T07:30:22;34.20;49.70
57664;DHT22;43493;53.098;6.064;2023-09-08T07:32:48;34.50;48.70
57664;DHT22;43493;53.098;6.064;2023-09-08T07:35:13;34.90;48.10
57664;DHT22;43493;53.098;6.064;2023-09-08T07:37:41;34.90;47.40
57664;DHT22;43493;53.098;6.064;2023-09-08T07:40:10;35.20;47.00
57664;DHT22;43493;53.098;6.064;2023-09-08T07:42:37;35.40;46.40
57664;DHT22;43493;53.098;6.064;2023-09-08T07:45:03;35.50;46.60
57664;DHT22;43493;53.098;6.064;2023-09-08T07:47:28;35.20;46.40
57664;DHT22;43493;53.098;6.064;2023-09-08T07:50:21;34.30;46.80
57664;DHT22;43493;53.098;6.064;2023-09-08T07:52:48;33.10;48.00
57664;DHT22;43493;53.098;6.064;2023-09-08T07:55:15;31.90;49.60
57664;DHT22;43493;53.098;6.064;2023-09-08T07:57:45;31.00;50.80
57664;DHT22;43493;53.098;6.064;2023-09-08T08:00:14;30.40;52.80
57664;DHT22;43493;53.098;6.064;2023-09-08T08:02:42;29.60;53.40
57664;DHT22;43493;53.098;6.064;2023-09-08T08:05:09;29.00;55.30
57664;DHT22;43493;53.098;6.064;2023-09-08T08:07:35;28.50;57.10
57664;DHT22;43493;53.098;6.064;2023-09-08T08:10:01;28.30;59.30
57664;DHT22;43493;53.098;6.064;2023-09-08T08:12:27;28.00;60.40
57664;DHT22;43493;53.098;6.064;2023-09-08T08:14:53;27.80;62.20
57664;DHT22;43493;53.098;6.064;2023-09-08T08:17:21;27.70;64.70
57664;DHT22;43493;53.098;6.064;2023-09-08T08:19:47;27.50;66.80
57664;DHT22;43493;53.098;6.064;2023-09-08T08:22:13;27.50;68.30
57664;DHT22;43493;53.098;6.064;2023-09-08T08:24:38;27.30;69.70
57664;DHT22;43493;53.098;6.064;2023-09-08T08:27:04;27.20;71.00
57664;DHT22;43493;53.098;6.064;2023-09-08T08:29:30;27.10;72.70
57664;DHT22;43493;53.098;6.064;2023-09-08T08:31:56;27.00;73.90
57664;DHT22;43493;53.098;6.064;2023-09-08T08:34:22;26.80;76.60
57664;DHT22;43493;53.098;6.064;2023-09-08T08:36:48;26.70;77.70
57664;DHT22;43493;53.098;6.064;2023-09-08T08:39:13;26.60;80.00
57664;DHT22;43493;53.098;6.064;2023-09-08T08:41:40;26.50;82.70
57664;DHT22;43493;53.098;6.064;2023-09-08T08:44:10;26.40;84.20
57664;DHT22;43493;53.098;6.064;2023-09-08T08:46:37;26.30;86.00
57664;DHT22;43493;53.098;6.064;2023-09-08T08:49:04;26.20;85.90
57664;DHT22;43493;53.098;6.064;2023-09-08T08:51:34;26.20;86.80
57664;DHT22;43493;53.098;6.064;2023-09-08T08:54:01;26.10;89.70
57664;DHT22;43493;53.098;6.064;2023-09-08T08:56:31;26.10;89.30
57664;DHT22;43493;53.098;6.064;2023-09-08T08:58:58;26.10;90.40
57664;DHT22;43493;53.098;6.064;2023-09-08T09:01:25;26.10;90.90
57664;DHT22;43493;53.098;6.064;2023-09-08T09:03:51;26.00;91.80
57664;DHT22;43493;53.098;6.064;2023-09-08T09:06:18;26.10;92.00
57664;DHT22;43493;53.098;6.064;2023-09-08T09:08:44;26.00;92.70
57664;DHT22;43493;53.098;6.064;2023-09-08T09:11:11;26.00;92.60
57664;DHT22;43493;53.098;6.064;2023-09-08T09:13:37;26.10;92.70
57664;DHT22;43493;53.098;6.064;2023-09-08T09:16:03;26.00;92.90
57664;DHT22;43493;53.098;6.064;2023-09-08T09:18:33;26.00;93.50
57664;DHT22;43493;53.098;6.064;2023-09-08T09:21:01;26.00;93.80
57664;DHT22;43493;53.098;6.064;2023-09-08T09:23:31;26.00;94.10
57664;DHT22;43493;53.098;6.064;2023-09-08T09:25:58;26.00;94.10
57664;DHT22;43493;53.098;6.064;2023-09-08T09:28:24;26.10;94.60
57664;DHT22;43493;53.098;6.064;2023-09-08T09:30:52;26.00;94.80
57664;DHT22;43493;53.098;6.064;2023-09-08T09:33:20;26.00;95.00
57664;DHT22;43493;53.098;6.064;2023-09-08T09:35:51;26.00;95.20
57664;DHT22;43493;53.098;6.064;2023-09-08T09:38:18;26.10;95.30
57664;DHT22;43493;53.098;6.064;2023-09-08T09:40:45;26.10;95.70
57664;DHT22;43493;53.098;6.064;2023-09-08T09:43:12;26.10;96.10
57664;DHT22;43493;53.098;6.064;2023-09-08T09:45:39;26.20;96.30
57664;DHT22;43493;53.098;6.064;2023-09-08T09:48:06;26.20;96.70
57664;DHT22;43493;53.098;6.064;2023-09-08T09:50:38;26.20;95.50
57664;DHT22;43493;53.098;6.064;2023-09-08T09:53:12;26.30;95.50
57664;DHT22;43493;53.098;6.064;2023-09-08T09:55:39;26.30;95.80
57664;DHT22;43493;53.098;6.064;2023-09-08T09:58:05;26.30;95.50
57664;DHT22;43493;53.098;6.064;2023-09-08T10:00:32;26.30;95.50
57664;DHT22;43493;53.098;6.064;2023-09-08T10:02:58;26.40;95.40
57664;DHT22;43493;53.098;6.064;2023-09-08T10:05:25;26.40;95.30
57664;DHT22;43493;53.098;6.064;2023-09-08T10:07:51;26.40;95.20
57664;DHT22;43493;53.098;6.064;2023-09-08T10:10:19;26.40;95.60
57664;DHT22;43493;53.098;6.064;2023-09-08T10:12:54;26.50;95.80
57664;DHT22;43493;53.098;6.064;2023-09-08T10:15:24;26.50;95.70
57664;DHT22;43493;53.098;6.064;2023-09-08T10:17:54;26.50;95.60
57664;DHT22;43493;53.098;6.064;2023-09-08T10:20:24;26.50;95.40
57664;DHT22;43493;53.098;6.064;2023-09-08T10:25:47;26.60;95.70
57664;DHT22;43493;53.098;6.064;2023-09-08T10:28:19;26.60;95.90
57664;DHT22;43493;53.098;6.064;2023-09-08T10:30:46;26.70;95.80
57664;DHT22;43493;53.098;6.064;2023-09-08T10:33:12;26.70;96.00
57664;DHT22;43493;53.098;6.064;2023-09-08T10:35:39;26.70;96.20
57664;DHT22;43493;53.098;6.064;2023-09-08T10:38:28;26.70;96.10
57664;DHT22;43493;53.098;6.064;2023-09-08T10:43:55;26.70;96.30
57664;DHT22;43493;53.098;6.064;2023-09-08T10:46:29;26.80;96.20
57664;DHT22;43493;53.098;6.064;2023-09-08T10:49:02;26.80;96.70
57664;DHT22;43493;53.098;6.064;2023-09-08T10:51:33;26.80;97.40
57664;DHT22;43493;53.098;6.064;2023-09-08T10:53:59;26.80;96.80
57664;DHT22;43493;53.098;6.064;2023-09-08T10:56:47;26.80;97.00
57664;DHT22;43493;53.098;6.064;2023-09-08T10:59:16;26.70;97.20
57664;DHT22;43493;53.098;6.064;2023-09-08T11:01:42;26.70;97.10
57664;DHT22;43493;53.098;6.064;2023-09-08T11:04:08;26.70;97.30
57664;DHT22;43493;53.098;6.064;2023-09-08T11:06:36;26.80;97.60
57664;DHT22;43493;53.098;6.064;2023-09-08T11:09:08;26.80;96.90
57664;DHT22;43493;53.098;6.064;2023-09-08T11:11:35;26.80;96.00
57664;DHT22;43493;53.098;6.064;2023-09-08T11:14:02;26.90;96.10
57664;DHT22;43493;53.098;6.064;2023-09-08T11:16:28;26.90;95.90
57664;DHT22;43493;53.098;6.064;2023-09-08T11:18:57;27.00;95.50
57664;DHT22;43493;53.098;6.064;2023-09-08T11:21:22;27.00;95.20
57664;DHT22;43493;53.098;6.064;2023-09-08T11:23:48;27.00;95.60
57664;DHT22;43493;53.098;6.064;2023-09-08T11:26:14;27.00;96.10
57664;DHT22;43493;53.098;6.064;2023-09-08T11:28:42;27.10;96.00
57664;DHT22;43493;53.098;6.064;2023-09-08T11:31:08;27.20;96.20
57664;DHT22;43493;53.098;6.064;2023-09-08T11:33:35;27.20;96.10
57664;DHT22;43493;53.098;6.064;2023-09-08T11:36:12;27.30;95.70
57664;DHT22;43493;53.098;6.064;2023-09-08T11:38:38;27.30;95.20
57664;DHT22;43493;53.098;6.064;2023-09-08T11:41:05;27.30;95.00
57664;DHT22;43493;53.098;6.064;2023-09-08T11:43:30;27.40;94.90
57664;DHT22;43493;53.098;6.064;2023-09-08T11:45:58;27.40;94.00
57664;DHT22;43493;53.098;6.064;2023-09-08T11:48:25;27.40;94.30
57664;DHT22;43493;53.098;6.064;2023-09-08T11:50:53;27.40;94.20
57664;DHT22;43493;53.098;6.064;2023-09-08T11:53:20;27.50;93.50
57664;DHT22;43493;53.098;6.064;2023-09-08T11:55:47;27.50;92.80
57664;DHT22;43493;53.098;6.064;2023-09-08T11:58:13;27.50;93.00
57664;DHT22;43493;53.098;6.064;2023-09-08T12:00:40;27.50;93.00
57664;DHT22;43493;53.098;6.064;2023-09-08T12:03:13;27.50;92.90
57664;DHT22;43493;53.098;6.064;2023-09-08T12:05:40;27.40;93.10
57664;DHT22;43493;53.098;6.064;2023-09-08T12:08:07;27.40;93.00
57664;DHT22;43493;53.098;6.064;2023-09-08T12:10:40;27.30;92.70
57664;DHT22;43493;53.098;6.064;2023-09-08T12:13:06;27.30;93.10
57664;DHT22;43493;53.098;6.064;2023-09-08T12:15:40;27.40;93.30
57664;DHT22;43493;53.098;6.064;2023-09-08T12:18:08;27.40;93.20
57664;DHT22;43493;53.098;6.064;2023-09-08T12:20:35;27.40;93.00
57664;DHT22;43493;53.098;6.064;2023-09-08T12:23:03;27.40;92.20
57664;DHT22;43493;53.098;6.064;2023-09-08T12:25:29;27.40;92.10
57664;DHT22;43493;53.098;6.064;2023-09-08T12:27:59;27.40;92.40
57664;DHT22;43493;53.098;6.064;2023-09-08T12:30:26;27.50;92.00
57664;DHT22;43493;53.098;6.064;2023-09-08T12:32:57;27.50;91.70
57664;DHT22;43493;53.098;6.064;2023-09-08T12:35:25;27.50;91.10
57664;DHT22;43493;53.098;6.064;2023-09-08T12:38:04;27.50;90.90
57664;DHT22;43493;53.098;6.064;2023-09-08T12:40:35;27.50;90.10
57664;DHT22;43493;53.098;6.064;2023-09-08T12:43:02;27.40;89.10
57664;DHT22;43493;53.098;6.064;2023-09-08T12:45:28;27.40;89.10
57664;DHT22;43493;53.098;6.064;2023-09-08T12:47:58;27.30;88.70
57664;DHT22;43493;53.098;6.064;2023-09-08T12:50:27;27.40;90.10
57664;DHT22;43493;53.098;6.064;2023-09-08T12:52:52;27.40;89.60
57664;DHT22;43493;53.098;6.064;2023-09-08T12:55:19;27.40;90.10
57664;DHT22;43493;53.098;6.064;2023-09-08T12:57:45;27.40;89.90
57664;DHT22;43493;53.098;6.064;2023-09-08T13:00:12;27.40;90.10
57664;DHT22;43493;53.098;6.064;2023-09-08T13:02:38;27.40;90.00
57664;DHT22;43493;53.098;6.064;2023-09-08T13:05:04;27.50;90.10
57664;DHT22;43493;53.098;6.064;2023-09-08T13:07:30;27.50;89.00
57664;DHT22;43493;53.098;6.064;2023-09-08T13:09:56;27.50;88.30
57664;DHT22;43493;53.098;6.064;2023-09-08T13:12:22;27.50;88.30
57664;DHT22;43493;53.098;6.064;2023-09-08T13:14:47;27.50;88.40
57664;DHT22;43493;53.098;6.064;2023-09-08T13:17:13;27.50;87.80
57664;DHT22;43493;53.098;6.064;2023-09-08T13:19:43;27.50;87.80
57664;DHT22;43493;53.098;6.064;2023-09-08T13:22:09;27.60;87.00
57664;DHT22;43493;53.098;6.064;2023-09-08T13:24:36;27.60;86.70
57664;DHT22;43493;53.098;6.064;2023-09-08T13:27:02;27.60;85.70
57664;DHT22;43493;53.098;6.064;2023-09-08T13:29:28;27.60;85.60
57664;DHT22;43493;53.098;6.064;2023-09-08T13:31:54;27.60;85.20
57664;DHT22;43493;53.098;6.064;2023-09-08T13:34:23;27.60;85.60
57664;DHT22;43493;53.098;6.064;2023-09-08T13:36:49;27.60;86.50
57664;DHT22;43493;53.098;6.064;2023-09-08T13:39:15;27.60;87.10
57664;DHT22;43493;53.098;6.064;2023-09-08T13:41:49;27.60;87.50
57664;DHT22;43493;53.098;6.064;2023-09-08T13:44:16;27.60;89.40
57664;DHT22;43493;53.098;6.064;2023-09-08T13:46:41;27.60;88.70
57664;DHT22;43493;53.098;6.064;2023-09-08T13:49:07;27.60;89.20
57664;DHT22;43493;53.098;6.064;2023-09-08T13:51:33;27.60;89.10
57664;DHT22;43493;53.098;6.064;2023-09-08T13:53:59;27.60;89.80
57664;DHT22;43493;53.098;6.064;2023-09-08T13:56:25;27.60;89.80
57664;DHT22;43493;53.098;6.064;2023-09-08T13:58:51;27.60;90.00
57664;DHT22;43493;53.098;6.064;2023-09-08T14:01:17;27.60;90.20
57664;DHT22;43493;53.098;6.064;2023-09-08T14:03:44;27.60;90.10
57664;DHT22;43493;53.098;6.064;2023-09-08T14:06:09;27.60;90.00
57664;DHT22;43493;53.098;6.064;2023-09-08T14:08:35;27.60;90.10
57664;DHT22;43493;53.098;6.064;2023-09-08T14:11:01;27.70;90.20
57664;DHT22;43493;53.098;6.064;2023-09-08T14:13:27;27.70;90.30
57664;DHT22;43493;53.098;6.064;2023-09-08T14:15:54;27.70;90.70
57664;DHT22;43493;53.098;6.064;2023-09-08T14:18:19;27.70;90.50
57664;DHT22;43493;53.098;6.064;2023-09-08T14:20:45;27.70;90.60
57664;DHT22;43493;53.098;6.064;2023-09-08T14:23:11;27.70;90.50
57664;DHT22;43493;53.098;6.064;2023-09-08T14:25:37;27.70;91.00
57664;DHT22;43493;53.098;6.064;2023-09-08T14:28:03;27.70;91.00
57664;DHT22;43493;53.098;6.064;2023-09-08T14:30:29;27.70;91.40
57664;DHT22;43493;53.098;6.064;2023-09-08T14:32:56;27.70;91.00
57664;DHT22;43493;53.098;6.064;2023-09-08T14:35:21;27.70;90.50
57664;DHT22;43493;53.098;6.064;2023-09-08T14:37:47;27.70;90.40
57664;DHT22;43493;53.098;6.064;2023-09-08T14:40:14;27.70;90.40
57664;DHT22;43493;53.098;6.064;2023-09-08T14:42:40;27.70;90.40
57664;DHT22;43493;53.098;6.064;2023-09-08T14:45:06;27.70;90.60
57664;DHT22;43493;53.098;6.064;2023-09-08T14:47:32;27.70;90.30
57664;DHT22;43493;53.098;6.064;2023-09-08T14:49:59;27.70;90.10
57664;DHT22;43493;53.098;6.064;2023-09-08T14:52:25;27.70;89.60
57664;DHT22;43493;53.098;6.064;2023-09-08T14:54:51;27.70;89.70
57664;DHT22;43493;53.098;6.064;2023-09-08T14:57:16;27.70;89.30
57664;DHT22;43493;53.098;6.064;2023-09-08T14:59:43;27.70;89.20
57664;DHT22;43493;53.098;6.064;2023-09-08T15:02:09;27.70;89.40
57664;DHT22;43493;53.098;6.064;2023-09-08T15:04:36;27.70;90.40
57664;DHT22;43493;53.098;6.064;2023-09-08T15:07:03;27.70;90.30
57664;DHT22;43493;53.098;6.064;2023-09-08T15:09:28;27.60;90.50
57664;DHT22;43493;53.098;6.064;2023-09-08T15:11:54;27.60;90.70
57664;DHT22;43493;53.098;6.064;2023-09-08T15:14:20;27.60;90.70
57664;DHT22;43493;53.098;6.064;2023-09-08T15:16:46;27.60;90.90
57664;DHT22;43493;53.098;6.064;2023-09-08T15:19:11;27.60;90.80
57664;DHT22;43493;53.098;6.064;2023-09-08T15:21:37;27.60;90.90
57664;DHT22;43493;53.098;6.064;2023-09-08T15:24:04;27.60;91.10
57664;DHT22;43493;53.098;6.064;2023-09-08T15:26:30;27.50;91.30
57664;DHT22;43493;53.098;6.064;2023-09-08T15:28:56;27.60;91.20
57664;DHT22;43493;53.098;6.064;2023-09-08T15:31:22;27.50;91.30
57664;DHT22;43493;53.098;6.064;2023-09-08T15:33:48;27.50;91.50
57664;DHT22;43493;53.098;6.064;2023-09-08T15:36:14;27.60;91.70